| time (UTC) | temp F | wind direction | speed knots | gust knots | rain 1hr in | rain 24hr in | rain mn in | humidity % | barometer mb |
| 20260508004514 | 64 | 334 | 2.6 | 4.3 | 0.00 | 0.00 | 0.00 | 69 | 1006.9 |
| 20260508003037 | 64 | 355 | 2.6 | 5.2 | 0.00 | 0.00 | 0.00 | 69 | 1007.1 |
| 20260508001629 | 64 | 327 | 2.6 | 7.0 | 0.00 | 0.00 | 0.00 | 68 | 1007.5 |
| 20260508000020 | 63 | 360 | 2.6 | 7.0 | 0.00 | 0.00 | 0.00 | 70 | 1007.7 |
| 20260507234547 | 63 | 13 | 3.5 | 7.8 | 0.00 | 0.00 | 0.00 | 70 | 1007.8 |
| 20260507233008 | 63 | 360 | 3.5 | 5.2 | 0.00 | 0.00 | 0.00 | 70 | 1008.0 |
| 20260507231536 | 63 | 360 | 3.5 | 7.0 | 0.00 | 0.00 | 0.00 | 69 | 1008.1 |
| 20260507230038 | 63 | 24 | 4.3 | 7.0 | 0.00 | 0.00 | 0.00 | 68 | 1008.3 |
| 20260507224604 | 63 | 22 | 3.5 | 5.2 | 0.00 | 0.00 | 0.00 | 68 | 1008.6 |
| 20260507223024 | 63 | 57 | 2.6 | 5.2 | 0.00 | 0.00 | 0.00 | 69 | 1008.7 |
| 20260507221534 | 63 | 14 | 4.3 | 7.0 | 0.00 | 0.00 | 0.00 | 70 | 1008.6 |
| 20260507220044 | 64 | 360 | 2.6 | 7.0 | 0.00 | 0.00 | 0.00 | 66 | 1008.7 |
| 20260507214502 | 65 | 46 | 0.0 | 2.6 | 0.00 | 0.02 | 0.00 | 71 | 1008.9 |
| 20260507213024 | 65 | 46 | 0.0 | 0.9 | 0.00 | 0.02 | 0.00 | 70 | 1008.9 |
| 20260507211536 | 65 | 46 | 0.0 | 1.7 | 0.00 | 0.02 | 0.00 | 69 | 1008.9 |
| 20260507210044 | 65 | 46 | 1.7 | 4.3 | 0.00 | 0.02 | 0.00 | 69 | 1008.8 |
| 20260507204505 | 64 | 26 | 2.6 | 7.0 | 0.00 | 0.03 | 0.00 | 75 | 1008.8 |
| 20260507203029 | 63 | 29 | 3.5 | 7.0 | 0.00 | 0.03 | 0.00 | 78 | 1008.9 |
| 20260507201556 | 64 | 21 | 3.5 | 4.3 | 0.00 | 0.03 | 0.00 | 78 | 1009.1 |
| 20260507200108 | 63 | 37 | 3.5 | 7.0 | 0.00 | 0.03 | 0.00 | 78 | 1009.2 |
| 20260507194605 | 64 | 30 | 2.6 | 7.0 | 0.00 | 0.03 | 0.00 | 81 | 1009.2 |
| 20260507193025 | 64 | 23 | 2.6 | 4.3 | 0.00 | 0.03 | 0.00 | 82 | 1009.1 |
| 20260507191552 | 64 | 23 | 1.7 | 3.5 | 0.00 | 0.03 | 0.00 | 84 | 1009.2 |
| 20260507190006 | 64 | 25 | 2.6 | 5.2 | 0.00 | 0.03 | 0.00 | 84 | 1009.1 |
| 20260507184531 | 65 | 22 | 3.5 | 5.2 | 0.00 | 0.03 | 0.00 | 83 | 1009.0 |
| 20260507183052 | 65 | 22 | 2.6 | 4.3 | 0.00 | 0.03 | 0.00 | 83 | 1009.1 |
| 20260507181509 | 65 | 5 | 2.6 | 4.3 | 0.00 | 0.03 | 0.00 | 83 | 1009.1 |
| 20260507180026 | 64 | 211 | 0.9 | 2.6 | 0.00 | 0.03 | 0.00 | 83 | 1009.2 |
| 20260507174556 | 64 | 211 | 0.9 | 1.7 | 0.00 | 0.03 | 0.00 | 83 | 1009.3 |
| 20260507173012 | 65 | 211 | 0.9 | 1.7 | 0.00 | 0.03 | 0.00 | 83 | 1009.3 |
| 20260507171537 | 65 | 211 | 0.0 | 2.6 | 0.00 | 0.03 | 0.00 | 82 | 1009.4 |
| 20260507170057 | 65 | 211 | 0.9 | 4.3 | 0.00 | 0.03 | 0.00 | 81 | 1009.4 |
| 20260507164518 | 65 | 219 | 0.9 | 2.6 | 0.00 | 0.03 | 0.00 | 81 | 1009.4 |
| 20260507163041 | 66 | 221 | 2.6 | 3.5 | 0.00 | 0.03 | 0.00 | 80 | 1009.4 |
| 20260507161549 | 66 | 184 | 1.7 | 4.3 | 0.00 | 0.03 | 0.00 | 79 | 1009.4 |
| 20260507160057 | 67 | 182 | 2.6 | 6.1 | 0.00 | 0.03 | 0.00 | 77 | 1009.6 |
| 20260507154606 | 67 | 213 | 2.6 | 7.8 | 0.00 | 0.03 | 0.00 | 76 | 1009.6 |
| 20260507153024 | 68 | 219 | 2.6 | 7.0 | 0.00 | 0.03 | 0.00 | 75 | 1009.6 |
| 20260507151550 | 68 | 157 | 4.3 | 8.7 | 0.00 | 0.03 | 0.00 | 74 | 1009.7 |
| 20260507150008 | 69 | 146 | 4.3 | 8.7 | 0.00 | 0.03 | 0.00 | 72 | 1009.8 |
| 20260507144534 | 68 | 165 | 4.3 | 8.7 | 0.00 | 0.03 | 0.00 | 73 | 1009.8 |
| 20260507143057 | 68 | 251 | 5.2 | 8.7 | 0.00 | 0.03 | 0.00 | 74 | 1009.8 |
| 20260507141518 | 67 | 186 | 4.3 | 7.8 | 0.00 | 0.03 | 0.00 | 75 | 1010.0 |
| 20260507140045 | 67 | 171 | 2.6 | 7.0 | 0.00 | 0.03 | 0.00 | 74 | 1010.2 |
| 20260507134503 | 67 | 163 | 3.5 | 8.7 | 0.00 | 0.03 | 0.00 | 74 | 1010.5 |
| 20260507133026 | 68 | 202 | 0.9 | 6.1 | 0.00 | 0.03 | 0.00 | 73 | 1010.6 |
| 20260507131600 | 65 | 253 | 2.6 | 6.1 | 0.00 | 0.03 | 0.00 | 76 | 1010.8 |
| 20260507130105 | 65 | 182 | 3.5 | 7.0 | 0.00 | 0.03 | 0.00 | 75 | 1010.8 |
| 20260507124512 | 65 | 279 | 3.5 | 7.0 | 0.00 | 0.03 | 0.00 | 77 | 1011.0 |
| 20260507123032 | 65 | 149 | 1.7 | 7.8 | 0.00 | 0.03 | 0.00 | 75 | 1011.2 |
| 20260507121549 | 65 | 169 | 4.3 | 7.8 | 0.00 | 0.03 | 0.00 | 75 | 1011.4 |
| 20260507120048 | 65 | 202 | 1.7 | 8.7 | 0.00 | 0.03 | 0.00 | 74 | 1011.3 |
| 20260507114614 | 65 | 201 | 3.5 | 9.6 | 0.00 | 0.04 | 0.00 | 74 | 1011.4 |
| 20260507113005 | 66 | 126 | 5.2 | 12.2 | 0.00 | 0.04 | 0.00 | 73 | 1011.6 |
| 20260507111526 | 67 | 184 | 6.1 | 12.2 | 0.00 | 0.04 | 0.00 | 71 | 1011.8 |
| 20260507110053 | 67 | 157 | 6.1 | 15.6 | 0.00 | 0.04 | 0.00 | 69 | 1011.7 |
| 20260507104601 | 69 | 202 | 5.2 | 9.6 | 0.00 | 0.04 | 0.00 | 62 | 1011.7 |
| 20260507103004 | 68 | 201 | 3.5 | 8.7 | 0.00 | 0.04 | 0.00 | 64 | 1011.8 |
| 20260507101530 | 67 | 133 | 4.3 | 7.8 | 0.00 | 0.04 | 0.00 | 66 | 1011.7 |
| 20260507100054 | 67 | 178 | 1.7 | 7.0 | 0.00 | 0.04 | 0.00 | 68 | 1011.8 |
| 20260507094605 | 66 | 196 | 4.3 | 7.0 | 0.00 | 0.04 | 0.00 | 68 | 1011.9 |
| 20260507093021 | 66 | 186 | 3.5 | 7.0 | 0.00 | 0.04 | 0.00 | 68 | 1011.8 |
| 20260507091551 | 66 | 217 | 2.6 | 6.1 | 0.00 | 0.04 | 0.00 | 69 | 1011.6 |
| 20260507090008 | 64 | 202 | 3.5 | 7.8 | 0.00 | 0.04 | 0.00 | 70 | 1011.8 |
| 20260507084531 | 65 | 184 | 3.5 | 5.2 | 0.00 | 0.04 | 0.00 | 69 | 1011.8 |
| 20260507083056 | 65 | 181 | 0.9 | 3.5 | 0.00 | 0.04 | 0.00 | 71 | 1011.7 |
| 20260507081533 | 63 | 182 | 2.6 | 6.1 | 0.00 | 0.04 | 0.00 | 71 | 1011.8 |
| 20260507080038 | 64 | 192 | 0.9 | 3.5 | 0.00 | 0.04 | 0.00 | 71 | 1011.8 |
| 20260507074611 | 63 | 138 | 1.7 | 4.3 | 0.00 | 0.04 | 0.00 | 70 | 1011.9 |
| 20260507073023 | 63 | 299 | 0.0 | 3.5 | 0.00 | 0.04 | 0.00 | 73 | 1012.1 |
| 20260507071549 | 61 | 225 | 2.6 | 6.1 | 0.00 | 0.04 | 0.00 | 75 | 1012.3 |
| 20260507070011 | 63 | 194 | 1.7 | 3.5 | 0.00 | 0.04 | 0.00 | 71 | 1012.2 |
| 20260507064534 | 62 | 321 | 0.9 | 4.3 | 0.00 | 0.07 | 0.00 | 73 | 1012.0 |
| 20260507063041 | 61 | 92 | 0.0 | 5.2 | 0.00 | 0.07 | 0.00 | 76 | 1012.0 |
| 20260507061502 | 61 | 355 | 2.6 | 6.1 | 0.00 | 0.07 | 0.00 | 76 | 1011.9 |
| 20260507060027 | 59 | 21 | 0.0 | 3.5 | 0.00 | 0.07 | 0.00 | 81 | 1011.9 |
| 20260507054636 | 58 | 21 | 0.0 | 0.9 | 0.00 | 0.10 | 0.00 | 83 | 1012.0 |
| 20260507053012 | 57 | 21 | 0.0 | 3.5 | 0.00 | 0.10 | 0.00 | 84 | 1011.8 |
| 20260507051537 | 57 | 21 | 1.7 | 2.6 | 0.00 | 0.10 | 0.00 | 84 | 1011.9 |
| 20260507050052 | 57 | 21 | 1.7 | 4.3 | 0.00 | 0.10 | 0.00 | 84 | 1011.8 |
| 20260507044507 | 57 | 11 | 1.7 | 3.5 | 0.00 | 0.10 | 0.00 | 84 | 1011.8 |
| 20260507043032 | 57 | 360 | 1.7 | 3.5 | 0.00 | 0.10 | 0.00 | 83 | 1011.6 |
| 20260507041545 | 57 | 360 | 0.9 | 2.6 | 0.00 | 0.10 | 0.00 | 82 | 1011.6 |
| 20260507040049 | 57 | 360 | 0.9 | 2.6 | 0.00 | 0.10 | 0.00 | 81 | 1011.5 |
| 20260507034513 | 57 | 360 | 0.9 | 2.6 | 0.00 | 0.10 | 0.00 | 82 | 1011.3 |
| 20260507033034 | 57 | 360 | 0.9 | 2.6 | 0.00 | 0.10 | 0.00 | 81 | 1011.4 |
| 20260507031601 | 57 | 360 | 0.9 | 2.6 | 0.00 | 0.10 | 0.00 | 80 | 1011.3 |
| 20260507030002 | 57 | 360 | 0.9 | 2.6 | 0.00 | 0.10 | 0.00 | 80 | 1011.3 |
| 20260507024532 | 57 | 360 | 0.0 | 1.7 | 0.00 | 0.10 | 0.00 | 79 | 1011.4 |
| 20260507023102 | 57 | 360 | 0.9 | 1.7 | 0.00 | 0.10 | 0.00 | 79 | 1011.4 |
| 20260507021512 | 57 | 360 | 0.0 | 1.7 | 0.00 | 0.10 | 0.00 | 79 | 1011.4 |
| 20260507020035 | 57 | 360 | 0.0 | 1.7 | 0.00 | 0.10 | 0.00 | 80 | 1011.3 |
| 20260507014606 | 57 | 23 | 0.9 | 3.5 | 0.00 | 0.10 | 0.00 | 81 | 1011.5 |
| 20260507013018 | 56 | 49 | 2.6 | 5.2 | 0.00 | 0.10 | 0.00 | 82 | 1011.3 |
| 20260507011545 | 57 | 355 | 1.7 | 3.5 | 0.00 | 0.10 | 0.00 | 81 | 1011.4 |
| 20260507010002 | 57 | 53 | 0.9 | 3.5 | 0.00 | 0.10 | 0.00 | 80 | 1011.5 |